• Join FlightAware (Why Join?)
  • Login
  • US Flag 
11:14PM EDT


 

Airport Tracker/Info


-or-


 

Live Flight TrackerFlight Track Log ✈ N960DL ✈ 05-May-2013 ✈ KMSP - KLGA

Flight Track Log - Related Links

Times and Time Zones

All times are in EDT time to prevent confusion due to time zone crossing. See the N960DL flight status page for this flight to view local times or setup timezone preferences in your user account.

Time Position Orientation Groundspeed Altitude Reporting Facility
EDT Latitude Longitude Course Direction KTS MPH feet Rate Location/Type
12:23PM 44.9456 -93.2472 117° Southeast 218 251 3,100  Level Minneapolis Center
12:24PM 44.9911 -93.1800 46° Northeast 255 293 5,600 2,520 Climbing Minneapolis Center
12:25PM 44.8257 -92.7493 115° Southeast  Level Estimated
12:25PM 44.9544 -93.0878 119° Southeast 270 311 8,400  Level Minneapolis Center
12:26PM 44.8065 -92.5920 113° Southeast  Level Estimated
12:26PM 44.9150 -92.9911 120° Southeast 281 323 11,100  Level Minneapolis Center
12:27PM 44.7871 -92.4348 125° Southeast  Level Estimated
12:27PM 44.8567 -92.8608 122° Southeast 339 390 12,600  Level Minneapolis Center
12:28PM 44.7675 -92.2777 117° Southeast  Level Estimated
12:28PM 44.8028 -92.7319 120° Southeast 382 440 14,000  Level Minneapolis Center
12:29PM 44.7481 -92.5922 119° Southeast 406 467 16,300 1,980 Climbing Minneapolis Center
12:30PM 44.6900 -92.4528 120° Southeast 414 476 18,200 1,920 Climbing Minneapolis Center
12:31PM 44.6297 -92.3128 121° Southeast 418 481 20,300 1,800 Climbing Minneapolis Center
12:32PM 44.5692 -92.1689 121° Southeast 426 490 21,900 1,440 Climbing Minneapolis Center
12:33PM 44.5092 -92.0183 119° Southeast 438 504 23,300 1,500 Climbing Minneapolis Center
12:34PM 44.4347 -91.8319 119° Southeast 453 521 25,000 1,320 Climbing Minneapolis Center
12:35PM 44.3711 -91.6775 120° Southeast 458 527 26,100 960 Climbing Minneapolis Center
12:36PM 44.3061 -91.5206 120° Southeast 464 534 27,100 1,440 Climbing Minneapolis Center
12:38PM 44.2286 -91.3331 120° Southeast 467 537 29,400 1,860 Climbing Minneapolis Center
12:39PM 44.1619 -91.1722 120° Southeast 444 511 31,400 1,380 Climbing Minneapolis Center
12:40PM 44.1022 -91.0319 121° Southeast 429 494 32,300 720 Climbing Minneapolis Center
12:41PM 44.0431 -90.8914 120° Southeast 425 489 33,000 300 Climbing Minneapolis Center
12:42PM 44.0072 -90.7369 108° East 425 489 33,000  Level Minneapolis Center
12:43PM 43.9831 -90.5747 102° East 432 497 33,000  Level Minneapolis Center
12:44PM 43.9550 -90.4033 103° East 434 499 33,000  Level Minneapolis Center
12:45PM 43.9244 -90.2161 103° East 426 490 33,000  Level Minneapolis Center
12:46PM 43.8981 -90.0553 103° East 427 491 33,000  Level Minneapolis Center
12:47PM 43.8711 -89.8953 103° East 427 491 33,000  Level Minneapolis Center
12:48PM 43.8453 -89.7361 103° East 426 490 33,000  Level Minneapolis Center
12:49PM 43.8181 -89.5758 103° East 427 491 33,000  Level Minneapolis Center
12:50PM 43.7908 -89.4161 103° East 427 491 33,000  Level Minneapolis Center
12:51PM 43.7597 -89.2289 103° East 427 491 33,000  Level Minneapolis Center
12:52PM 43.7317 -89.0706 104° East 424 488 33,000  Level Minneapolis Center
12:53PM 43.7044 -88.9108 103° East 425 489 33,000  Level Minneapolis Center
12:54PM 43.6758 -88.7494 104° East 427 491 33,000  Level Minneapolis Center
12:55PM 43.6472 -88.5878 104° East 430 495 33,000  Level Minneapolis Center
12:56PM 43.6231 -88.4525 104° East 430 495 33,000  Level Chicago Center
12:57PM 43.5886 -88.2622 104° East 432 497 33,000  Level Chicago Center
12:58PM 43.5581 -88.1033 105° East 426 490 33,000  Level Chicago Center
12:59PM 43.5289 -87.9444 104° East 425 489 33,000  Level Chicago Center
01:00PM 43.4997 -87.7881 104° East 421 484 33,000  Level Chicago Center
01:01PM 43.4706 -87.6322 104° East 420 483 33,000  Level Chicago Center
01:02PM 43.4414 -87.4792 105° East 414 476 33,000  Level Chicago Center
01:03PM 43.4086 -87.3078 105° East 415 478 33,000  Level Chicago Center
01:04PM 43.3789 -87.1525 105° East 419 482 33,000  Level Chicago Center
01:05PM 43.3492 -86.9975 105° East 421 484 33,000  Level Chicago Center
01:06PM 43.3203 -86.8439 104° East 418 481 33,000  Level Chicago Center
01:07PM 43.2894 -86.6889 105° East 421 484 33,000  Level Chicago Center
01:08PM 43.2531 -86.5053 105° East 418 481 33,000  Level Chicago Center
01:09PM 43.2214 -86.3514 106° East 419 482 33,000 -60 Level Chicago Center
01:11PM 43.1897 -86.1956 106° East 418 481 32,900  Descending Chicago Center
01:12PM 43.1583 -86.0417 106° East 419 482 33,000  Climbing Chicago Center
01:13PM 43.1256 -85.8794 105° East 425 489 33,000  Level Chicago Center
01:14PM 43.0931 -85.7228 106° East 423 487 33,000  Level Chicago Center
01:15PM 43.0617 -85.5692 106° East 418 481 33,000  Level Chicago Center
01:16PM 43.0286 -85.4117 106° East 429 494 33,000  Level Chicago Center
01:17PM 42.9958 -85.2519 106° East 436 502 33,000  Level Chicago Center
01:18PM 42.9422 -85.0681 112° Southeast 434 499 33,000  Level Chicago Center
01:19PM 42.8586 -84.9497 134° Southeast 430 495 33,000  Level Chicago Center
01:20PM 42.7750 -84.8372 135° Southeast 424 488 33,000  Level Chicago Center
01:21PM 42.7208 -84.6942 117° Southeast 432 497 33,000  Level Chicago Center
01:22PM 42.6956 -84.5697 105° East 417 480 33,000  Level Cleveland Center
01:23PM 42.6611 -84.4150 107° East 426 490 33,000  Level Cleveland Center
01:24PM 42.6289 -84.2519 105° East 426 490 33,000  Level Cleveland Center
01:25PM 42.5964 -84.0922 105° East 432 497 33,000  Level Cleveland Center
01:26PM 42.5636 -83.9325 106° East 438 504 33,000  Level Cleveland Center
01:27PM 42.5328 -83.7731 105° East 445 512 33,000  Level Cleveland Center
01:28PM 42.4994 -83.6136 106° East 445 512 33,000  Level Cleveland Center
01:29PM 42.4681 -83.4514 105° East 445 512 33,000  Level Cleveland Center
01:30PM 42.4325 -83.2922 107° East 445 512 33,000  Level Cleveland Center
01:31PM 42.3986 -83.1306 106° East 445 512 33,000  Level Cleveland Center
01:32PM 42.3644 -82.9692 106° East 445 512 33,000  Level Cleveland Center
01:33PM 42.3303 -82.8106 106° East 445 512 33,000  Level Cleveland Center
01:34PM 42.2956 -82.6519 106° East 440 506 33,000  Level Cleveland Center
01:35PM 42.2608 -82.4908 106° East 440 506 33,000  Level Cleveland Center
01:36PM 42.2261 -82.3272 106° East 445 512 33,000  Level Cleveland Center
01:37PM 42.1928 -82.1694 106° East 445 512 33,000  Level Cleveland Center
01:38PM 42.1614 -82.0286 107° East 440 506 33,000  Level Cleveland Center
01:39PM 42.1239 -81.8542 106° East 445 512 33,000  Level Cleveland Center
01:40PM 42.0858 -81.6967 108° East 445 512 33,000  Level Cleveland Center
01:41PM 42.0497 -81.5394 107° East 445 512 33,000  Level Cleveland Center
01:42PM 42.0136 -81.3769 107° East 445 512 33,000  Level Cleveland Center
01:43PM 41.9769 -81.2200 107° East 445 512 33,000  Level Cleveland Center
01:44PM 41.9403 -81.0550 107° East 450 518 33,000  Level Cleveland Center
01:45PM 41.9033 -80.8983 108° East 450 518 33,000  Level Cleveland Center
01:46PM 41.8703 -80.7561 107° East 445 512 33,000  Level Cleveland Center
01:47PM 41.8328 -80.6000 108° East 445 512 33,000  Level Cleveland Center
01:48PM 41.7931 -80.4383 108° East 445 512 33,000  Level Cleveland Center
01:49PM 41.7553 -80.2769 107° East 449 517 33,000  Level Cleveland Center
01:50PM 41.7172 -80.1214 108° East 449 517 33,000  Level Cleveland Center
01:51PM 41.6769 -79.9519 108° East 439 505 33,000  Level Cleveland Center
01:52PM 41.6425 -79.8081 108° East 439 505 33,000  Level Cleveland Center
01:53PM 41.6019 -79.6503 109° East 444 511 33,000  Level Cleveland Center
01:54PM 41.5631 -79.4925 108° East 444 511 33,000  Level Cleveland Center
01:55PM 41.5239 -79.3322 108° East 444 511 33,000  Level Cleveland Center
01:56PM 41.4822 -79.1750 109° East 444 511 33,000  Level Cleveland Center
01:57PM 41.4447 -79.0181 108° East 444 511 33,000  Level Cleveland Center
01:58PM 41.4031 -78.8614 109° East 444 511 33,000  Level Cleveland Center
01:59PM 41.3586 -78.6853 109° East 444 511 33,000  Level Cleveland Center
02:01PM 41.2728 -78.3547 109° East 447 514 33,000  Level New York Center
02:02PM 41.2358 -78.2153 109° East 447 514 33,000  Level New York Center
02:03PM 41.2022 -78.0544 105° East 447 514 33,000  Level New York Center
02:04PM 41.1831 -77.8894 99° East 447 514 33,000  Level New York Center
02:05PM 41.1636 -77.7222 99° East 447 514 33,000  Level New York Center
02:06PM 41.1419 -77.5572 100° East 447 514 33,000  Level New York Center
02:07PM 41.1222 -77.3900 99° East 452 520 33,000  Level New York Center
02:08PM 41.0969 -77.2058 100° East 452 520 33,000 -720 Level New York Center
02:09PM 41.0722 -77.0436 101° East 452 520 31,600 -2,460 Descending New York Center
02:10PM 41.0519 -76.8739 99° East 457 526 28,100 -1,860 Descending New York Center
02:11PM 41.0292 -76.7097 100° East 457 526 28,000 -60 Descending New York Center
02:12PM 40.9933 -76.5469 106° East 457 526 28,000  Level New York Center
02:13PM 40.9533 -76.3814 108° East 463 533 28,000  Level New York Center
02:14PM 40.9131 -76.2217 108° East 468 539 28,000 -1,920 Level New York Center
02:15PM 40.8764 -76.0650 107° East 462 532 24,200 -3,720 Descending New York Center
02:16PM 40.8392 -75.9167 108° East 444 511 20,600 -3,600 Descending New York Center
02:17PM 40.8114 -75.7883 106° East 420 483 17,000 -3,780 Descending New York Center
02:18PM 40.7758 -75.6406 108° East 393 452 13,200 -2,040 Descending New York Center
02:19PM 40.7458 -75.5069 106° East 383 441 13,000 -300 Descending New York Center
02:20PM 40.7133 -75.3761 108° East 377 434 12,700 -1,320 Descending New York Center
02:21PM 40.6869 -75.2511 106° East 363 418 10,400 -1,380 Descending New York Center
02:22PM 40.6600 -75.1400 108° East 344 396 10,000 -240 Descending New York Center
02:23PM 40.6028 -75.0514 130° Southeast 313 360 10,000  Level New York Center
02:24PM 40.5600 -74.9669 124° Southeast 313 360 10,000  Level New York Center
02:25PM 40.5264 -74.8528 111° Southeast 306 352 10,000  Level New York Center
02:25PM 40.5167 -74.8000 104° East 277 319 10,000  Level New York TRACON
02:26PM 40.4833 -74.7167 118° Southeast 280 322 10,000  Level New York TRACON
02:27PM 40.4500 -74.6333 118° Southeast 256 295 10,000 -480 Level New York TRACON
02:28PM 40.4167 -74.5667 123° Southeast 227 261 9,000 -540 Descending New York TRACON
02:29PM 40.3833 -74.5000 123° Southeast 229 264 9,000 -240 Level New York TRACON
02:30PM 40.3500 -74.4167 118° Southeast 226 260 8,600 -840 Descending New York TRACON
02:31PM 40.3333 -74.3500 108° East 223 257 7,400 -1,080 Descending New York TRACON
02:32PM 40.3542 -74.3197 48° Northeast 201 231 7,000 -420 Descending New York Center
02:32PM 40.3833 -74.2833 44° Northeast 220 253 7,000  Level New York TRACON
02:33PM 40.4333 -74.2333 37° Northeast 224 258 7,000 -600 Level New York TRACON
02:34PM 40.4667 -74.1833 49° Northeast 222 255 5,900 -1,260 Descending New York TRACON
02:35PM 40.5167 -74.1333 37° Northeast 214 246 4,500 -1,380 Descending New York TRACON
02:36PM 40.5667 -74.0833 37° Northeast 209 241 3,300 -1,260 Descending New York TRACON
02:37PM 40.6000 -74.0333 49° Northeast 201 231 2,200 -600 Descending New York TRACON
02:38PM 40.6500 -73.9833 37° Northeast 187 215 2,100 -60 Descending New York TRACON
02:39PM 40.6833 -73.9500 37° Northeast 174 200 2,100 -480 Level New York TRACON
02:40PM 40.7167 -73.9333 21° North 148 170 1,200 -840 Descending New York TRACON
02:41PM 40.7500 -73.9000 37° Northeast 157 181 500 -720 Descending New York TRACON